createdAt,value
2022-10-22T00:00:39.635Z,7.00
2022-10-22T00:03:42.592Z,6.80
2022-10-22T00:06:45.364Z,7.55
2022-10-22T00:09:48.388Z,7.18
2022-10-22T00:12:51.052Z,7.00
2022-10-22T00:15:53.965Z,7.93
2022-10-22T00:18:56.610Z,8.93
2022-10-22T00:21:59.663Z,8.27
2022-10-22T00:25:02.273Z,7.93
2022-10-22T00:28:05.331Z,8.70
2022-10-22T00:31:07.995Z,8.47
2022-10-22T00:34:10.934Z,9.03
2022-10-22T00:37:13.582Z,10.02
2022-10-22T00:40:17.868Z,9.48
2022-10-22T00:43:20.787Z,8.77
2022-10-22T00:46:23.839Z,7.90
2022-10-22T00:49:26.435Z,8.20
2022-10-22T00:52:29.734Z,8.20
2022-10-22T00:55:33.608Z,7.87
2022-10-22T00:58:40.875Z,9.52
2022-10-22T01:01:46.613Z,9.37
2022-10-22T01:04:49.758Z,9.43
2022-10-22T01:07:53.839Z,10.40
2022-10-22T01:11:13.777Z,10.10
2022-10-22T01:14:22.204Z,10.07
2022-10-22T01:17:40.391Z,10.00
2022-10-22T01:20:46.164Z,9.30
2022-10-22T01:23:59.184Z,10.25
2022-10-22T01:27:24.399Z,10.20
2022-10-22T01:30:27.743Z,10.00
2022-10-22T01:33:31.561Z,9.40
2022-10-22T01:36:35.931Z,8.53
2022-10-22T01:39:40.602Z,8.55
2022-10-22T01:42:43.557Z,8.38
2022-10-22T01:45:50.946Z,8.52
2022-10-22T01:49:02.620Z,8.23
2022-10-22T01:52:40.416Z,8.67
2022-10-22T01:55:51.654Z,9.50
2022-10-22T01:59:33.758Z,8.63
2022-10-22T02:02:56.671Z,8.95
2022-10-22T02:06:05.961Z,13.57
2022-10-22T02:09:10.243Z,11.37
2022-10-22T02:12:14.281Z,11.57
2022-10-22T02:15:20.600Z,11.05
2022-10-22T02:18:28.316Z,9.63
2022-10-22T02:21:32.153Z,9.67
2022-10-22T02:24:35.124Z,10.17
2022-10-22T02:27:49.349Z,9.93
2022-10-22T02:30:55.747Z,9.73
2022-10-22T02:34:03.244Z,9.93
2022-10-22T02:37:08.227Z,10.83
2022-10-22T02:40:11.235Z,10.20
2022-10-22T02:43:14.300Z,10.60
2022-10-22T02:46:17.210Z,11.30
2022-10-22T02:49:20.167Z,12.75
2022-10-22T02:52:22.762Z,12.47
2022-10-22T02:55:25.595Z,11.83
2022-10-22T02:58:28.363Z,11.12
2022-10-22T03:01:31.287Z,12.15
2022-10-22T03:04:34.259Z,16.77
2022-10-22T03:07:37.113Z,12.00
2022-10-22T03:10:39.772Z,12.07
2022-10-22T03:13:42.666Z,11.55
2022-10-22T03:16:46.605Z,11.70
2022-10-22T03:19:49.485Z,11.63
2022-10-22T03:22:52.914Z,11.93
2022-10-22T03:25:55.922Z,11.73
2022-10-22T03:29:00.989Z,11.38
2022-10-22T03:32:04.038Z,11.80
2022-10-22T03:35:06.977Z,11.80
2022-10-22T03:38:10.058Z,10.40
2022-10-22T03:41:12.798Z,9.83
2022-10-22T03:44:17.690Z,10.43
2022-10-22T03:47:20.340Z,10.27
2022-10-22T03:50:23.278Z,10.40
2022-10-22T03:53:25.812Z,10.07
2022-10-22T03:56:28.805Z,9.97
2022-10-22T03:59:39.430Z,9.55
2022-10-22T04:02:42.541Z,9.52
2022-10-22T04:05:45.425Z,10.23
2022-10-22T04:08:57.001Z,10.30
2022-10-22T04:12:00.288Z,10.57
2022-10-22T04:15:02.909Z,10.80
2022-10-22T04:18:07.985Z,10.10
2022-10-22T04:21:12.290Z,10.88
2022-10-22T04:24:15.224Z,11.40
2022-10-22T04:27:17.819Z,11.70
2022-10-22T04:30:20.741Z,11.65
2022-10-22T04:33:23.865Z,12.35
2022-10-22T04:36:29.638Z,12.77
2022-10-22T04:39:32.285Z,13.27
2022-10-22T04:42:35.269Z,14.30
2022-10-22T04:45:37.835Z,13.18
2022-10-22T04:48:42.462Z,12.50
2022-10-22T04:51:45.078Z,12.73
2022-10-22T04:54:50.347Z,12.80
2022-10-22T04:57:52.952Z,13.13
2022-10-22T05:00:55.814Z,14.20
2022-10-22T05:04:02.503Z,12.70
2022-10-22T05:07:05.414Z,13.30
2022-10-22T05:10:08.561Z,13.70
2022-10-22T05:13:13.767Z,35.00
2022-10-22T05:16:16.493Z,23.27
2022-10-22T05:19:31.019Z,30.70
2022-10-22T05:22:35.154Z,31.42
2022-10-22T05:25:39.869Z,28.17
2022-10-22T05:28:43.684Z,27.07
2022-10-22T05:31:47.002Z,22.48
2022-10-22T05:34:50.672Z,23.45
2022-10-22T05:37:53.605Z,20.40
2022-10-22T05:41:00.987Z,16.13
2022-10-22T05:44:05.360Z,14.60
2022-10-22T05:47:10.402Z,15.05
2022-10-22T05:50:13.755Z,15.35
2022-10-22T05:53:19.661Z,15.93
2022-10-22T05:56:23.782Z,16.20
2022-10-22T05:59:26.875Z,13.50
2022-10-22T06:02:30.907Z,15.15
2022-10-22T06:05:42.103Z,15.75
2022-10-22T06:08:48.702Z,16.95
2022-10-22T06:11:53.525Z,19.37
2022-10-22T06:14:56.813Z,20.77
2022-10-22T06:18:01.128Z,19.67
2022-10-22T06:21:13.654Z,21.85
2022-10-22T06:24:17.223Z,18.60
2022-10-22T06:27:20.035Z,21.33
2022-10-22T06:30:23.173Z,19.17
2022-10-22T06:33:26.758Z,20.73
2022-10-22T06:36:29.760Z,20.33
2022-10-22T06:39:32.421Z,20.25
2022-10-22T06:42:36.419Z,19.50
2022-10-22T06:45:39.121Z,19.97
2022-10-22T06:48:43.229Z,18.85
2022-10-22T06:51:49.471Z,18.00
2022-10-22T06:54:52.449Z,18.90
2022-10-22T06:57:58.221Z,22.03
2022-10-22T07:01:22.930Z,16.37
2022-10-22T07:04:25.696Z,16.17
2022-10-22T07:07:28.681Z,16.25
2022-10-22T07:10:31.689Z,15.27
2022-10-22T07:13:35.431Z,14.90
2022-10-22T07:16:38.112Z,14.73
2022-10-22T07:19:41.252Z,15.35
2022-10-22T07:22:44.008Z,21.00
2022-10-22T07:25:48.859Z,22.77
2022-10-22T07:28:52.000Z,19.73
2022-10-22T07:31:55.009Z,17.13
2022-10-22T07:34:59.725Z,15.70
2022-10-22T07:38:09.767Z,15.25
2022-10-22T07:41:14.581Z,14.68
2022-10-22T07:44:18.038Z,14.60
2022-10-22T07:47:22.323Z,12.07
2022-10-22T07:50:28.472Z,8.13
2022-10-22T07:53:33.285Z,9.00
2022-10-22T07:56:40.358Z,7.93
2022-10-22T07:59:45.181Z,6.50
2022-10-22T08:02:49.101Z,5.30
2022-10-22T08:05:52.389Z,5.40
2022-10-22T08:08:55.011Z,5.12
2022-10-22T08:11:58.117Z,6.20
2022-10-22T08:15:01.103Z,5.40
2022-10-22T08:18:05.814Z,4.10
2022-10-22T08:21:08.555Z,5.97
2022-10-22T08:24:12.741Z,5.72
2022-10-22T08:27:15.411Z,6.40
2022-10-22T08:30:18.874Z,6.87
2022-10-22T08:33:21.801Z,7.47
2022-10-22T08:36:24.793Z,6.25
2022-10-22T08:39:28.207Z,6.87
2022-10-22T08:42:55.858Z,7.10
2022-10-22T08:46:19.712Z,9.80
2022-10-22T08:49:36.102Z,6.43
2022-10-22T08:52:45.213Z,6.85
2022-10-22T08:55:52.914Z,8.68
2022-10-22T08:59:23.487Z,8.13
2022-10-22T09:02:48.368Z,7.47
2022-10-22T09:06:15.381Z,8.87
2022-10-22T09:09:19.953Z,8.98
2022-10-22T09:12:25.019Z,6.30
2022-10-22T09:15:28.424Z,8.95
2022-10-22T09:19:05.384Z,7.90
2022-10-22T09:22:29.296Z,10.53
2022-10-22T09:25:36.587Z,7.80
2022-10-22T09:28:39.793Z,8.50
2022-10-22T09:31:42.389Z,8.07
2022-10-22T09:34:49.244Z,8.23
2022-10-22T09:37:56.569Z,6.27
2022-10-22T09:41:04.164Z,6.82
2022-10-22T09:44:07.560Z,6.43
2022-10-22T09:48:00.618Z,6.65
2022-10-22T09:51:07.169Z,5.80
2022-10-22T09:54:37.455Z,6.70
2022-10-22T09:57:43.682Z,6.75
2022-10-22T10:00:53.132Z,6.43
2022-10-22T10:04:09.838Z,6.50
2022-10-22T10:07:19.072Z,6.23
2022-10-22T10:10:28.119Z,6.90
2022-10-22T10:14:10.609Z,6.93
2022-10-22T10:17:28.355Z,7.32
2022-10-22T10:20:50.802Z,7.18
2022-10-22T10:24:17.149Z,6.70
2022-10-22T10:27:38.355Z,8.30
2022-10-22T10:31:15.565Z,6.50
2022-10-22T10:34:36.217Z,7.03
2022-10-22T10:37:52.594Z,6.53
2022-10-22T10:41:05.709Z,6.60
2022-10-22T10:44:34.841Z,6.87
2022-10-22T10:47:55.688Z,7.90
2022-10-22T10:51:20.406Z,7.90
2022-10-22T10:54:35.990Z,6.62
2022-10-22T10:58:01.938Z,6.93
2022-10-22T11:01:20.128Z,7.07
2022-10-22T11:04:42.270Z,7.55
2022-10-22T11:08:26.785Z,8.13
2022-10-22T11:11:32.204Z,8.45
2022-10-22T11:14:42.852Z,8.27
2022-10-22T11:17:48.968Z,8.93
2022-10-22T11:21:04.034Z,9.40
2022-10-22T11:24:31.124Z,8.55
2022-10-22T11:27:45.033Z,8.73
2022-10-22T11:31:03.134Z,8.03
2022-10-22T11:34:33.165Z,8.97
2022-10-22T11:37:39.508Z,9.43
2022-10-22T11:40:50.471Z,9.02
2022-10-22T11:43:56.307Z,9.38
2022-10-22T11:47:19.534Z,9.13
2022-10-22T11:50:25.890Z,8.77
2022-10-22T11:53:33.476Z,8.60
2022-10-22T11:56:39.923Z,9.65
2022-10-22T12:00:00.291Z,9.52
2022-10-22T12:03:32.561Z,9.77
2022-10-22T12:06:55.619Z,9.27
2022-10-22T12:09:58.750Z,9.40
2022-10-22T12:13:12.106Z,9.40
2022-10-22T12:16:14.989Z,9.32
2022-10-22T12:19:27.845Z,9.20
2022-10-22T12:22:33.330Z,9.20
2022-10-22T12:25:36.819Z,9.82
2022-10-22T12:28:41.126Z,10.00
2022-10-22T12:31:45.936Z,9.90
2022-10-22T12:34:51.447Z,10.30
2022-10-22T12:38:00.796Z,9.93
2022-10-22T12:41:05.659Z,10.32
2022-10-22T12:44:13.189Z,10.68
2022-10-22T12:47:18.306Z,9.82
2022-10-22T12:50:33.362Z,10.67
2022-10-22T12:53:39.447Z,9.93
2022-10-22T12:56:42.514Z,9.70
2022-10-22T12:59:49.790Z,9.50
2022-10-22T13:02:54.047Z,10.30
2022-10-22T13:05:57.700Z,9.43
2022-10-22T13:09:00.748Z,9.40
2022-10-22T13:12:05.934Z,10.20
2022-10-22T13:15:21.861Z,9.52
2022-10-22T13:18:45.073Z,10.65
2022-10-22T13:21:49.116Z,9.90
2022-10-22T13:24:52.407Z,9.87
2022-10-22T13:28:01.544Z,9.65
2022-10-22T13:31:19.914Z,9.70
2022-10-22T13:34:25.586Z,9.52
2022-10-22T13:37:30.331Z,9.60
2022-10-22T13:40:33.247Z,8.97
2022-10-22T13:43:35.840Z,9.27
2022-10-22T13:46:42.967Z,10.25
2022-10-22T13:49:47.014Z,9.85
2022-10-22T13:52:53.412Z,10.80
2022-10-22T13:55:56.259Z,15.80
2022-10-22T13:58:59.211Z,13.30
2022-10-22T14:02:06.536Z,15.55
2022-10-22T14:05:11.416Z,12.02
2022-10-22T14:08:17.413Z,11.23
2022-10-22T14:11:20.384Z,11.53
2022-10-22T14:14:22.943Z,11.00
2022-10-22T14:17:26.327Z,12.07
2022-10-22T14:20:31.794Z,10.90
2022-10-22T14:23:36.503Z,11.40
2022-10-22T14:26:39.123Z,12.00
2022-10-22T14:29:43.171Z,11.27
2022-10-22T14:32:46.543Z,11.12
2022-10-22T14:35:50.126Z,9.65
2022-10-22T14:38:52.743Z,9.70
2022-10-22T14:41:55.685Z,9.30
2022-10-22T14:44:58.306Z,9.43
2022-10-22T14:48:02.248Z,9.20
2022-10-22T14:51:05.216Z,8.73
2022-10-22T14:54:08.183Z,10.17
2022-10-22T14:57:11.748Z,9.90
2022-10-22T15:00:20.649Z,9.70
2022-10-22T15:03:23.311Z,10.05
2022-10-22T15:06:26.209Z,10.20
2022-10-22T15:09:29.315Z,12.30
2022-10-22T15:12:32.353Z,16.20
2022-10-22T15:15:39.439Z,15.02
2022-10-22T15:18:43.026Z,13.55
2022-10-22T15:21:45.823Z,13.18
2022-10-22T15:24:49.849Z,13.50
2022-10-22T15:27:54.876Z,12.50
2022-10-22T15:31:02.417Z,12.27
2022-10-22T15:34:05.196Z,12.27
2022-10-22T15:37:12.654Z,14.18
2022-10-22T15:40:15.352Z,16.50
2022-10-22T15:43:19.043Z,15.50
2022-10-22T15:46:22.164Z,12.90
2022-10-22T15:49:27.657Z,14.52
2022-10-22T15:52:31.840Z,16.23
2022-10-22T15:55:34.800Z,19.97
2022-10-22T15:58:37.403Z,25.73
2022-10-22T16:01:41.334Z,27.95
2022-10-22T16:04:44.270Z,23.87
2022-10-22T16:07:47.221Z,16.83
2022-10-22T16:10:50.235Z,14.23
2022-10-22T16:13:57.962Z,14.07
2022-10-22T16:17:01.836Z,13.85
2022-10-22T16:20:05.768Z,15.23
2022-10-22T16:23:09.353Z,17.98
2022-10-22T16:26:13.364Z,19.73
2022-10-22T16:29:17.227Z,18.77
2022-10-22T16:32:19.905Z,17.15
2022-10-22T16:35:22.774Z,19.25
2022-10-22T16:38:26.100Z,17.90
2022-10-22T16:41:35.300Z,25.10
2022-10-22T16:44:37.931Z,27.10
2022-10-22T16:47:43.410Z,33.20
2022-10-22T16:50:46.785Z,45.55
2022-10-22T16:53:52.736Z,27.92
2022-10-22T16:56:55.500Z,28.67
2022-10-22T16:59:58.844Z,23.80
2022-10-22T17:03:01.672Z,21.05
2022-10-22T17:06:05.680Z,21.23
2022-10-22T17:09:08.710Z,20.98
2022-10-22T17:12:13.316Z,23.00
2022-10-22T17:15:16.197Z,22.90
2022-10-22T17:18:19.653Z,23.23
2022-10-22T17:21:23.245Z,28.17
2022-10-22T17:24:26.619Z,23.45
2022-10-22T17:27:29.603Z,25.57
2022-10-22T17:30:33.046Z,27.37
2022-10-22T17:33:44.059Z,27.48
2022-10-22T17:36:50.115Z,27.05
2022-10-22T17:39:55.571Z,25.67
2022-10-22T17:43:01.953Z,25.73
2022-10-22T17:46:15.103Z,26.10
2022-10-22T17:49:23.441Z,27.27
2022-10-22T17:52:28.277Z,26.83
2022-10-22T17:55:36.307Z,25.52
2022-10-22T17:58:41.371Z,24.87
2022-10-22T18:01:49.086Z,27.37
2022-10-22T18:04:53.299Z,27.55
2022-10-22T18:07:57.403Z,29.23
2022-10-22T18:11:01.115Z,27.13
2022-10-22T18:14:05.830Z,34.13
2022-10-22T18:17:09.273Z,31.77
2022-10-22T18:20:12.910Z,30.33
2022-10-22T18:23:16.363Z,28.30
2022-10-22T18:26:25.882Z,28.27
2022-10-22T18:29:30.521Z,28.73
2022-10-22T18:32:34.703Z,27.07
2022-10-22T18:35:39.170Z,26.23
2022-10-22T18:38:45.406Z,26.50
2022-10-22T18:42:00.190Z,27.77
2022-10-22T18:45:04.168Z,28.13
2022-10-22T18:48:07.829Z,26.07
2022-10-22T18:51:11.562Z,26.15
2022-10-22T18:54:23.815Z,25.00
2022-10-22T18:57:27.167Z,23.87
2022-10-22T19:00:31.957Z,27.93
2022-10-22T19:03:35.299Z,28.43
2022-10-22T19:06:42.970Z,24.00
2022-10-22T19:09:48.063Z,26.90
2022-10-22T19:12:51.116Z,26.75
2022-10-22T19:15:53.706Z,28.37
2022-10-22T19:19:04.446Z,26.73
2022-10-22T19:22:07.331Z,32.97
2022-10-22T19:25:12.057Z,29.40
2022-10-22T19:28:15.945Z,26.27
2022-10-22T19:31:22.534Z,27.13
2022-10-22T19:34:25.322Z,26.43
2022-10-22T19:37:28.740Z,25.12
2022-10-22T19:40:31.676Z,26.52
2022-10-22T19:43:35.014Z,25.40
2022-10-22T19:46:37.918Z,25.07
2022-10-22T19:49:43.030Z,25.17
2022-10-22T19:52:45.957Z,25.10
2022-10-22T19:55:48.948Z,26.92
2022-10-22T19:58:51.756Z,25.02
2022-10-22T20:01:55.343Z,24.07
2022-10-22T20:05:00.725Z,24.27
2022-10-22T20:08:03.447Z,26.83
2022-10-22T20:11:13.655Z,28.33
2022-10-22T20:14:16.782Z,25.23
2022-10-22T20:17:20.267Z,22.37
2022-10-22T20:20:26.285Z,24.10
2022-10-22T20:23:29.514Z,23.12
2022-10-22T20:26:33.529Z,22.70
2022-10-22T20:29:36.981Z,23.05
2022-10-22T20:32:40.412Z,22.37
2022-10-22T20:35:45.451Z,20.57
2022-10-22T20:38:49.438Z,20.23
2022-10-22T20:41:52.816Z,21.45
2022-10-22T20:44:55.418Z,29.70
2022-10-22T20:48:02.562Z,27.70
2022-10-22T20:51:05.733Z,27.67
2022-10-22T20:54:09.906Z,26.37
2022-10-22T20:57:14.554Z,26.95
2022-10-22T21:00:17.679Z,25.20
2022-10-22T21:03:23.662Z,23.40
2022-10-22T21:06:26.747Z,25.37
2022-10-22T21:09:29.521Z,25.30
2022-10-22T21:12:32.847Z,24.42
2022-10-22T21:15:35.493Z,28.25
2022-10-22T21:18:38.782Z,28.33
2022-10-22T21:21:41.528Z,25.53
2022-10-22T21:24:44.478Z,24.92
2022-10-22T21:27:47.045Z,22.80
2022-10-22T21:30:49.962Z,24.08
2022-10-22T21:33:54.009Z,24.03
2022-10-22T21:36:56.866Z,22.43
2022-10-22T21:40:00.814Z,22.70
2022-10-22T21:43:03.801Z,22.87
2022-10-22T21:46:08.274Z,22.23
2022-10-22T21:49:12.370Z,22.30
2022-10-22T21:52:14.973Z,21.20
2022-10-22T21:55:17.893Z,21.95
2022-10-22T21:58:20.494Z,20.45
2022-10-22T22:01:23.480Z,20.88
2022-10-22T22:04:27.243Z,20.77
2022-10-22T22:07:29.761Z,21.83
2022-10-22T22:10:32.745Z,19.37
2022-10-22T22:13:35.785Z,20.12
2022-10-22T22:16:39.387Z,21.00
2022-10-22T22:19:42.272Z,20.07
2022-10-22T22:22:48.022Z,19.93
2022-10-22T22:25:50.687Z,19.55
2022-10-22T22:28:53.759Z,20.58
2022-10-22T22:31:56.563Z,19.25
2022-10-22T22:34:59.449Z,18.97
2022-10-22T22:38:02.203Z,19.37
2022-10-22T22:41:05.593Z,19.35
2022-10-22T22:44:08.613Z,18.85
2022-10-22T22:47:11.464Z,19.67
2022-10-22T22:50:14.034Z,18.80
2022-10-22T22:53:16.917Z,16.57
2022-10-22T22:56:24.687Z,18.45
2022-10-22T22:59:29.003Z,18.30
2022-10-22T23:02:32.118Z,18.17
2022-10-22T23:05:37.767Z,18.40
2022-10-22T23:08:40.645Z,16.93
2022-10-22T23:11:45.385Z,19.08
2022-10-22T23:14:51.351Z,18.95
2022-10-22T23:17:54.286Z,17.95
2022-10-22T23:20:56.849Z,18.47
2022-10-22T23:24:02.118Z,18.43
2022-10-22T23:27:05.469Z,17.92
2022-10-22T23:30:09.263Z,17.08
2022-10-22T23:33:12.421Z,18.58
2022-10-22T23:36:15.662Z,19.10
2022-10-22T23:39:20.921Z,19.00
2022-10-22T23:42:23.907Z,19.37
2022-10-22T23:45:26.558Z,18.67
2022-10-22T23:48:29.581Z,17.30
2022-10-22T23:51:32.334Z,17.67
2022-10-22T23:54:35.590Z,18.00
2022-10-22T23:57:38.285Z,16.12
